Flight Track Log - Related Links

Times and Time Zones

All times are in EDT time to prevent confusion due to time zone crossing. See the N8559W flight status page for this flight to view local times or setup timezone preferences in your user account.

Time Position Orientation Groundspeed Altitude Reporting Facility
EDT Latitude Longitude Course Direction KTS km/h feet Rate Location/Type
Fri 16:56:38 29.0500 -81.0000 139° Southeast 97 180 5.400  Level Orlando TRACON
Fri 16:57:38 29.0333 -80.9833 139° Southeast 99 183 6.100 500 Climbing Orlando TRACON
Fri 16:58:38 29.0000 -80.9667 156° South 102 188 6.400 250 Climbing Orlando TRACON
Fri 16:59:38 28.9667 -80.9667 180° South 113 209 6.600 50 Climbing Orlando TRACON
Fri 17:00:39 28.9333 -80.9500 156° South 119 220 6.500 50 Descending Orlando TRACON
Fri 17:01:39 28.9000 -80.9500 180° South 116 214 6.700 381 Climbing Orlando TRACON
Fri 17:02:45 28.8833 -80.9667 221° Southwest 107 198 7.300 524 Climbing Orlando TRACON
Fri 17:03:45 28.8500 -80.9833 204° Southwest 104 193 7.800 496 Climbing Orlando TRACON
Fri 17:04:46 28.8167 -80.9833 180° South 96 177 8.300 378 Climbing Orlando TRACON
Fri 17:05:52 28.7833 -81.0000 204° Southwest 104 193 8.600 150 Climbing Orlando TRACON
Fri 17:06:46 28.7667 -81.0000 180° South 114 211 8.600  Level Orlando TRACON
Fri 17:07:46 28.7333 -81.0167 204° Southwest 111 206 8.600 -50 Level Orlando TRACON
Fri 17:08:46 28.7000 -81.0167 180° South 115 212 8.500  Descending Orlando TRACON
Fri 17:09:46 28.6667 -81.0333 204° Southwest 113 209 8.600 52 Climbing Orlando TRACON
Fri 17:10:41 28.6500 -81.0333 180° South 118 219 8.600 -52 Level Orlando TRACON
Fri 17:11:41 28.6167 -81.0500 204° Southwest 121 224 8.500  Descending Orlando TRACON
Fri 17:12:41 28.5833 -81.0667 204° Southwest 116 214 8.600  Climbing Orlando TRACON
Fri 17:13:41 28.5500 -81.0667 180° South 119 220 8.500 -50 Descending Orlando TRACON
Fri 17:14:42 28.5167 -81.0833 204° Southwest 117 217 8.500  Level Orlando TRACON
Fri 17:15:42 28.4833 -81.0833 180° South 110 204 8.500 50 Level Orlando TRACON
Fri 17:16:42 28.4500 -81.1000 204° Southwest 107 198 8.600 50 Climbing Orlando TRACON
Fri 17:17:42 28.4333 -81.1167 221° Southwest 118 219 8.600  Level Orlando TRACON
Fri 17:18:42 28.4000 -81.1333 204° Southwest 119 220 8.600  Level Orlando TRACON
Fri 17:19:43 28.3667 -81.1333 180° South 118 219 8.600  Level Orlando TRACON
Fri 17:20:43 28.3333 -81.1500 204° Southwest 108 200 8.600 -50 Level Orlando TRACON
Fri 17:21:43 28.3000 -81.1500 180° South 115 212 8.500  Descending Orlando TRACON
Fri 17:22:49 28.2667 -81.1667 204° Southwest 111 206 8.600 48 Climbing Orlando TRACON
Fri 17:23:49 28.2500 -81.1833 221° Southwest 106 196 8.600  Level Orlando TRACON
Fri 17:24:50 28.2167 -81.2000 204° Southwest 111 206 8.600  Level Orlando TRACON
Fri 17:25:50 28.1833 -81.2000 180° South 110 204 8.600  Level Orlando TRACON
Fri 17:26:50 28.1500 -81.2167 204° Southwest 110 204 8.600  Level Orlando TRACON
Fri 17:27:44 28.1167 -81.2167 180° South 116 214 8.600 -74 Level Orlando TRACON
Fri 17:29:32 28.0786 -81.2619 226° Southwest 112 208 8.400 -36 Descending Miami Center
Fri 17:30:32 28.0514 -81.2725 199° South 112 208 8.500 50 Climbing Miami Center
Fri 17:31:32 28.0217 -81.2808 194° South 107 198 8.500 50 Level Miami Center
Fri 17:32:32 27.9944 -81.2892 195° South 107 198 8.600  Climbing Miami Center
Fri 17:33:32 27.9650 -81.2997 198° South 107 198 8.500  Descending Miami Center
Fri 17:34:32 27.9353 -81.3081 194° South 107 198 8.600 50 Climbing Miami Center
Fri 17:35:32 27.9097 -81.3281 215° Southwest 107 198 8.600  Level Miami Center
Fri 17:36:32 27.8842 -81.3483 215° Southwest 112 208 8.600 -50 Level Miami Center
Fri 17:37:32 27.8564 -81.3636 206° Southwest 117 217 8.500  Descending Miami Center
Fri 17:38:32 27.8289 -81.3742 199° South 117 217 8.600 50 Climbing Miami Center
Fri 17:39:32 27.8000 -81.3683 170° South 107 198 8.600  Level Miami Center
Fri 17:40:32 27.7706 -81.3767 194° South 107 198 8.600  Level Miami Center
Fri 17:41:32 27.7450 -81.3897 204° Southwest 107 198 8.600  Level Miami Center
Fri 17:42:32 27.7158 -81.3908 182° South 107 198 8.600  Level Miami Center
Fri 17:43:32 27.6861 -81.4014 197° South 107 198 8.600  Level Miami Center
Fri 17:44:32 27.6569 -81.4050 186° South 107 198 8.600  Level Miami Center
Fri 17:45:32 27.6278 -81.4061 182° South 107 198 8.600  Level Miami Center
Fri 17:46:32 27.5981 -81.4142 194° South 107 198 8.600  Level Miami Center
Fri 17:47:32 27.5708 -81.4225 195° South 107 198 8.600  Level Miami Center
Fri 17:48:32 27.5456 -81.4308 196° South 107 198 8.600  Level Miami Center
Fri 17:49:32 27.5181 -81.4417 199° South 107 198 8.600  Level Miami Center
Fri 17:50:32 27.4883 -81.4544 201° Southwest 107 198 8.600  Level Miami Center
Fri 17:51:32 27.4633 -81.4581 187° South 107 198 8.600  Level Miami Center
Fri 17:52:32 27.4358 -81.4617 187° South 107 198 8.600  Level Miami Center
Fri 17:53:32 27.4086 -81.4675 191° South 107 198 8.600  Level Miami Center
Fri 17:54:32 27.3792 -81.4758 194° South 107 198 8.600  Level Miami Center
Fri 17:55:32 27.3517 -81.4839 195° South 107 198 8.600  Level Miami Center
Fri 17:56:32 27.3264 -81.4947 201° Southwest 107 198 8.600  Level Miami Center
Fri 17:57:32 27.2989 -81.5028 195° South 107 198 8.600  Level Miami Center
Fri 17:58:32 27.2694 -81.5133 198° South 107 198 8.600  Level Miami Center
Fri 17:59:32 27.2400 -81.5217 194° South 107 198 8.600  Level Miami Center
Fri 18:00:32 27.2125 -81.5275 191° South 107 198 8.600  Level Miami Center
Fri 18:01:32 27.1850 -81.5403 202° Southwest 107 198 8.600  Level Miami Center
Fri 18:02:32 27.1594 -81.5533 204° Southwest 107 198 8.600 -250 Level Miami Center
Fri 18:03:32 27.1317 -81.5756 215° Southwest 117 217 8.100 -400 Descending Miami Center
Fri 18:04:32 27.1000 -81.5858 196° South 123 229 7.800 -400 Descending Miami Center
Fri 18:05:32 27.0667 -81.5844 178° South 123 229 7.300 -400 Descending Miami Center
Fri 18:06:32 27.0311 -81.5853 181° South 123 229 7.000 -350 Descending Miami Center
Fri 18:07:32 26.9978 -81.5886 185° South 123 229 6.600 -250 Descending Miami Center
Fri 18:08:32 26.9597 -81.5989 194° South 123 229 6.500 -50 Descending Miami Center
Fri 18:09:32 26.9283 -81.6069 193° South 123 229 6.500  Level Miami Center
Fri 18:11:00 26.8800 -81.6161 190° South  Level FlightAware Approximate
Fri 18:18:00 26.6493 -81.6595 190° South  Level FlightAware Approximate
Fri 18:19:00 26.6164 -81.6657 190° South  Level FlightAware Approximate
Fri 18:20:00 26.5834 -81.6719 190° South  Level FlightAware Approximate
Fri 18:21:00 26.5504 -81.6781 190° South  Level FlightAware Approximate
Fri 18:22:00 26.5175 -81.6842 190° South  Level FlightAware Approximate
Fri 18:23:00 26.4845 -81.6904 190° South  Level FlightAware Approximate
Fri 18:24:00 26.4515 -81.6966 190° South  Level FlightAware Approximate
Fri 18:25:00 26.4160 -81.7029 188° South  Level FlightAware Approximate
Fri 18:26:00 26.3829 -81.7084 188° South  Level FlightAware Approximate
Fri 18:27:00 26.3499 -81.7139 188° South  Level FlightAware Approximate
Fri 18:28:00 26.3174 -81.7220 197° South  Level FlightAware Approximate
Fri 18:29:00 26.2853 -81.7327 197° South  Level FlightAware Approximate
Fri 18:30:00 26.2533 -81.7433 197° South  Level FlightAware Approximate
Fri 18:31:00 26.2210 -81.7525 190° South  Level FlightAware Approximate
Fri 18:32:00 26.1881 -81.7590 190° South  Level FlightAware Approximate
Fri 18:33:00 26.1552 -81.7656 190° South  Level FlightAware Approximate
Fri 18:34:00 26.1500 -81.7667 190° South  Level FlightAware Approximate
Fri 18:35:00 26.1524 -81.7756 190° South  Level Estimated
Fri 18:36:00 26.1524 -81.7756 190° South  Level Estimated
Fri 18:37:00 26.1524 -81.7756 190° South  Level Estimated
Fri 18:38:00 26.1524 -81.7756 190° South  Level Estimated

Login

Don't have an account? Register now (free) for customized features, flight alerts, and more!